Terminal Aerodrome Forecast
Issued by NWS

Home | Current Version | Previous Version | Text Only | Print | Product List | Glossary On
Versions: 1 2 3 4 5 6 7 8 9 10 11 12 13 14 15 16
000
FTUS42 KMLB 021129
TAFISM
TAF
KISM 021129Z 0212/0312 VRB03KT P6SM FEW015 SCT150 OVC250
     FM021400 21005KT P6SM SCT025 BKN060 OVC250
     FM021900 23006KT P6SM VCTS SCT030CB OVC050
      TEMPO 0220/0223 VRB15G30KT 2SM TSRA BKN015CB OVC030
     FM030000 26005KT P6SM VCSH SCT020 OVC040
     FM030200 18003KT P6SM SCT030 OVC060=

USA.gov is the U.S. government's official web portal to all federal, state and local government web resources and services.